sensor_id;sensor_type;location;lat;lon;timestamp;pressure;altitude;pressure_sealevel;temperature;humidity
62634;BME280;48704;50.534;6.442;2023-06-04T00:00:39;95896.22;;;10.69;63.68
62634;BME280;48704;50.534;6.442;2023-06-04T00:03:04;95891.81;;;10.44;64.92
62634;BME280;48704;50.534;6.442;2023-06-04T00:05:31;95892.78;;;10.74;64.16
62634;BME280;48704;50.534;6.442;2023-06-04T00:07:57;95893.00;;;11.18;63.32
62634;BME280;48704;50.534;6.442;2023-06-04T00:10:22;95885.53;;;11.00;63.72
62634;BME280;48704;50.534;6.442;2023-06-04T00:12:48;95893.50;;;10.84;63.85
62634;BME280;48704;50.534;6.442;2023-06-04T00:15:14;95884.66;;;10.52;65.53
62634;BME280;48704;50.534;6.442;2023-06-04T00:17:40;95880.81;;;10.83;64.94
62634;BME280;48704;50.534;6.442;2023-06-04T00:20:06;95883.06;;;10.93;64.56
62634;BME280;48704;50.534;6.442;2023-06-04T00:22:31;95881.22;;;10.66;65.26
62634;BME280;48704;50.534;6.442;2023-06-04T00:24:56;95880.25;;;10.36;66.53
62634;BME280;48704;50.534;6.442;2023-06-04T00:27:22;95880.25;;;10.36;67.40
62634;BME280;48704;50.534;6.442;2023-06-04T00:29:47;95881.03;;;10.28;67.37
62634;BME280;48704;50.534;6.442;2023-06-04T00:32:12;95881.38;;;10.21;68.19
62634;BME280;48704;50.534;6.442;2023-06-04T00:34:37;95877.03;;;10.11;69.27
62634;BME280;48704;50.534;6.442;2023-06-04T00:37:03;95872.84;;;10.15;69.09
62634;BME280;48704;50.534;6.442;2023-06-04T00:39:28;95878.59;;;10.21;68.98
62634;BME280;48704;50.534;6.442;2023-06-04T00:41:54;95875.47;;;10.19;70.20
62634;BME280;48704;50.534;6.442;2023-06-04T00:44:20;95877.38;;;9.94;70.55
62634;BME280;48704;50.534;6.442;2023-06-04T00:46:47;95867.78;;;9.95;71.22
62634;BME280;48704;50.534;6.442;2023-06-04T00:49:12;95879.19;;;10.06;70.46
62634;BME280;48704;50.534;6.442;2023-06-04T00:51:38;95870.84;;;10.06;70.66
62634;BME280;48704;50.534;6.442;2023-06-04T00:54:04;95863.44;;;10.03;71.59
62634;BME280;48704;50.534;6.442;2023-06-04T00:56:34;95870.53;;;10.14;71.38
62634;BME280;48704;50.534;6.442;2023-06-04T00:58:59;95870.22;;;10.02;71.93
62634;BME280;48704;50.534;6.442;2023-06-04T01:04:00;95858.84;;;9.82;73.09
62634;BME280;48704;50.534;6.442;2023-06-04T01:06:32;95870.28;;;9.75;75.48
62634;BME280;48704;50.534;6.442;2023-06-04T01:09:01;95857.00;;;9.70;75.37
62634;BME280;48704;50.534;6.442;2023-06-04T01:11:34;95861.34;;;9.62;75.85
62634;BME280;48704;50.534;6.442;2023-06-04T01:14:01;95864.72;;;9.66;75.28
62634;BME280;48704;50.534;6.442;2023-06-04T01:16:30;95866.00;;;9.65;75.15
62634;BME280;48704;50.534;6.442;2023-06-04T01:19:01;95872.13;;;9.69;75.93
62634;BME280;48704;50.534;6.442;2023-06-04T01:21:29;95864.44;;;9.64;76.58
62634;BME280;48704;50.534;6.442;2023-06-04T01:24:00;95867.84;;;9.59;76.63
62634;BME280;48704;50.534;6.442;2023-06-04T01:26:30;95863.81;;;9.60;77.13
62634;BME280;48704;50.534;6.442;2023-06-04T01:28:55;95872.28;;;9.65;77.72
62634;BME280;48704;50.534;6.442;2023-06-04T01:31:22;95868.78;;;9.56;79.19
62634;BME280;48704;50.534;6.442;2023-06-04T01:33:51;95865.84;;;9.50;79.26
62634;BME280;48704;50.534;6.442;2023-06-04T01:36:16;95864.44;;;9.46;79.13
62634;BME280;48704;50.534;6.442;2023-06-04T01:38:42;95865.06;;;9.41;80.17
62634;BME280;48704;50.534;6.442;2023-06-04T01:41:07;95864.44;;;9.27;81.38
62634;BME280;48704;50.534;6.442;2023-06-04T01:43:32;95860.41;;;9.28;81.73
62634;BME280;48704;50.534;6.442;2023-06-04T01:46:00;95864.91;;;9.35;81.58
62634;BME280;48704;50.534;6.442;2023-06-04T01:48:25;95862.88;;;9.17;82.63
62634;BME280;48704;50.534;6.442;2023-06-04T01:50:51;95866.88;;;9.07;83.99
62634;BME280;48704;50.534;6.442;2023-06-04T01:53:16;95862.38;;;9.00;84.43
62634;BME280;48704;50.534;6.442;2023-06-04T01:55:42;95854.19;;;8.88;85.19
62634;BME280;48704;50.534;6.442;2023-06-04T01:58:07;95858.50;;;8.80;86.18
62634;BME280;48704;50.534;6.442;2023-06-04T02:00:34;95865.47;;;8.84;86.19
62634;BME280;48704;50.534;6.442;2023-06-04T02:02:59;95864.69;;;8.93;85.95
62634;BME280;48704;50.534;6.442;2023-06-04T02:05:25;95865.91;;;8.74;86.84
62634;BME280;48704;50.534;6.442;2023-06-04T02:07:50;95869.22;;;8.59;89.60
62634;BME280;48704;50.534;6.442;2023-06-04T02:10:18;95869.22;;;8.50;89.83
62634;BME280;48704;50.534;6.442;2023-06-04T02:12:57;95861.50;;;8.45;90.51
62634;BME280;48704;50.534;6.442;2023-06-04T02:15:24;95864.34;;;8.73;89.33
62634;BME280;48704;50.534;6.442;2023-06-04T02:17:50;95873.28;;;8.67;90.25
62634;BME280;48704;50.534;6.442;2023-06-04T02:20:16;95863.09;;;8.64;90.31
62634;BME280;48704;50.534;6.442;2023-06-04T02:22:42;95864.84;;;8.80;89.63
62634;BME280;48704;50.534;6.442;2023-06-04T02:25:08;95866.47;;;8.59;90.69
62634;BME280;48704;50.534;6.442;2023-06-04T02:27:36;95865.13;;;8.73;90.84
62634;BME280;48704;50.534;6.442;2023-06-04T02:30:03;95866.47;;;8.59;91.31
62634;BME280;48704;50.534;6.442;2023-06-04T02:32:28;95867.69;;;8.49;93.15
62634;BME280;48704;50.534;6.442;2023-06-04T02:34:54;95867.03;;;8.45;94.09
62634;BME280;48704;50.534;6.442;2023-06-04T02:37:20;95878.16;;;8.45;94.36
62634;BME280;48704;50.534;6.442;2023-06-04T02:39:46;95880.00;;;8.48;95.23
62634;BME280;48704;50.534;6.442;2023-06-04T02:42:11;95877.56;;;8.59;92.36
62634;BME280;48704;50.534;6.442;2023-06-04T02:44:36;95876.59;;;8.44;92.96
62634;BME280;48704;50.534;6.442;2023-06-04T02:47:01;95883.56;;;8.27;94.68
62634;BME280;48704;50.534;6.442;2023-06-04T02:49:27;95877.13;;;8.30;94.27
62634;BME280;48704;50.534;6.442;2023-06-04T02:51:52;95874.28;;;8.21;94.87
62634;BME280;48704;50.534;6.442;2023-06-04T02:54:17;95873.97;;;8.19;95.25
62634;BME280;48704;50.534;6.442;2023-06-04T02:56:43;95865.94;;;8.12;96.43
62634;BME280;48704;50.534;6.442;2023-06-04T02:59:09;95867.19;;;8.20;95.15
62634;BME280;48704;50.534;6.442;2023-06-04T03:01:35;95865.81;;;8.15;95.38
62634;BME280;48704;50.534;6.442;2023-06-04T03:04:01;95866.88;;;8.18;95.91
62634;BME280;48704;50.534;6.442;2023-06-04T03:06:29;95872.13;;;8.16;96.67
62634;BME280;48704;50.534;6.442;2023-06-04T03:08:54;95878.53;;;8.03;96.91
62634;BME280;48704;50.534;6.442;2023-06-04T03:11:21;95866.22;;;8.04;97.57
62634;BME280;48704;50.534;6.442;2023-06-04T03:13:46;95879.38;;;7.91;98.54
62634;BME280;48704;50.534;6.442;2023-06-04T03:16:12;95878.94;;;7.93;98.78
62634;BME280;48704;50.534;6.442;2023-06-04T03:18:39;95874.75;;;7.88;99.34
62634;BME280;48704;50.534;6.442;2023-06-04T03:21:05;95883.38;;;7.90;100.00
62634;BME280;48704;50.534;6.442;2023-06-04T03:23:31;95880.03;;;7.95;100.00
62634;BME280;48704;50.534;6.442;2023-06-04T03:25:56;95876.03;;;7.96;100.00
62634;BME280;48704;50.534;6.442;2023-06-04T03:28:22;95875.44;;;8.01;100.00
62634;BME280;48704;50.534;6.442;2023-06-04T03:30:47;95884.91;;;8.13;99.24
62634;BME280;48704;50.534;6.442;2023-06-04T03:33:12;95888.28;;;7.86;100.00
62634;BME280;48704;50.534;6.442;2023-06-04T03:35:40;95887.78;;;8.00;100.00
62634;BME280;48704;50.534;6.442;2023-06-04T03:38:05;95886.03;;;7.94;100.00
62634;BME280;48704;50.534;6.442;2023-06-04T03:40:31;95880.81;;;7.52;100.00
62634;BME280;48704;50.534;6.442;2023-06-04T03:42:56;95880.38;;;7.54;100.00
62634;BME280;48704;50.534;6.442;2023-06-04T03:45:21;95881.59;;;7.53;100.00
62634;BME280;48704;50.534;6.442;2023-06-04T03:47:47;95881.34;;;7.60;100.00
62634;BME280;48704;50.534;6.442;2023-06-04T03:50:12;95874.75;;;7.88;100.00
62634;BME280;48704;50.534;6.442;2023-06-04T03:52:37;95876.94;;;7.93;100.00
62634;BME280;48704;50.534;6.442;2023-06-04T03:55:02;95874.75;;;7.88;100.00
62634;BME280;48704;50.534;6.442;2023-06-04T03:57:28;95878.75;;;7.87;100.00
62634;BME280;48704;50.534;6.442;2023-06-04T03:59:53;95873.97;;;7.88;100.00
62634;BME280;48704;50.534;6.442;2023-06-04T04:02:19;95873.78;;;7.82;100.00
62634;BME280;48704;50.534;6.442;2023-06-04T04:04:44;95873.97;;;7.88;100.00
62634;BME280;48704;50.534;6.442;2023-06-04T04:07:10;95867.63;;;7.87;100.00
62634;BME280;48704;50.534;6.442;2023-06-04T04:09:36;95871.38;;;7.93;100.00
62634;BME280;48704;50.534;6.442;2023-06-04T04:12:01;95869.19;;;7.88;100.00
62634;BME280;48704;50.534;6.442;2023-06-04T04:14:27;95874.22;;;8.02;100.00
62634;BME280;48704;50.534;6.442;2023-06-04T04:16:52;95869.31;;;8.07;100.00
62634;BME280;48704;50.534;6.442;2023-06-04T04:19:17;95870.34;;;8.00;100.00
62634;BME280;48704;50.534;6.442;2023-06-04T04:21:43;95871.75;;;8.04;100.00
62634;BME280;48704;50.534;6.442;2023-06-04T04:24:08;95871.50;;;8.21;100.00
62634;BME280;48704;50.534;6.442;2023-06-04T04:26:34;95866.28;;;8.23;100.00
62634;BME280;48704;50.534;6.442;2023-06-04T04:28:59;95869.84;;;8.23;100.00
62634;BME280;48704;50.534;6.442;2023-06-04T04:31:27;95873.13;;;8.31;100.00
62634;BME280;48704;50.534;6.442;2023-06-04T04:33:55;95882.44;;;8.37;100.00
62634;BME280;48704;50.534;6.442;2023-06-04T04:36:20;95868.31;;;8.53;100.00
62634;BME280;48704;50.534;6.442;2023-06-04T04:38:45;95866.75;;;8.52;100.00
62634;BME280;48704;50.534;6.442;2023-06-04T04:41:11;95872.00;;;8.59;100.00
62634;BME280;48704;50.534;6.442;2023-06-04T04:43:37;95875.09;;;8.61;100.00
62634;BME280;48704;50.534;6.442;2023-06-04T04:46:05;95873.91;;;8.71;100.00
62634;BME280;48704;50.534;6.442;2023-06-04T04:48:31;95874.41;;;8.79;100.00
62634;BME280;48704;50.534;6.442;2023-06-04T04:50:57;95876.13;;;8.95;100.00
62634;BME280;48704;50.534;6.442;2023-06-04T04:53:22;95878.00;;;9.07;99.93
62634;BME280;48704;50.534;6.442;2023-06-04T04:55:48;95881.44;;;9.20;99.47
62634;BME280;48704;50.534;6.442;2023-06-04T04:58:13;95879.88;;;9.19;99.68
62634;BME280;48704;50.534;6.442;2023-06-04T05:00:39;95888.38;;;9.25;98.35
62634;BME280;48704;50.534;6.442;2023-06-04T05:03:04;95882.34;;;9.35;97.46
62634;BME280;48704;50.534;6.442;2023-06-04T05:05:31;95881.75;;;9.50;97.29
62634;BME280;48704;50.534;6.442;2023-06-04T05:07:56;95889.47;;;9.55;97.75
62634;BME280;48704;50.534;6.442;2023-06-04T05:10:21;95882.97;;;9.76;97.00
62634;BME280;48704;50.534;6.442;2023-06-04T05:12:53;95884.00;;;10.06;94.86
62634;BME280;48704;50.534;6.442;2023-06-04T05:15:19;95890.63;;;10.18;94.54
62634;BME280;48704;50.534;6.442;2023-06-04T05:17:45;95884.59;;;10.28;95.17
62634;BME280;48704;50.534;6.442;2023-06-04T05:20:12;95890.56;;;10.45;94.19
62634;BME280;48704;50.534;6.442;2023-06-04T05:22:38;95896.56;;;10.62;92.81
62634;BME280;48704;50.534;6.442;2023-06-04T05:25:04;95899.13;;;10.75;92.46
62634;BME280;48704;50.534;6.442;2023-06-04T05:27:30;95898.00;;;10.81;90.61
62634;BME280;48704;50.534;6.442;2023-06-04T05:29:57;95894.41;;;10.90;89.59
62634;BME280;48704;50.534;6.442;2023-06-04T05:32:22;95903.97;;;10.98;88.23
62634;BME280;48704;50.534;6.442;2023-06-04T05:34:48;95902.22;;;11.10;87.73
62634;BME280;48704;50.534;6.442;2023-06-04T05:37:13;95885.31;;;11.13;86.19
62634;BME280;48704;50.534;6.442;2023-06-04T05:39:41;95892.16;;;11.27;85.08
62634;BME280;48704;50.534;6.442;2023-06-04T05:42:07;95894.47;;;11.52;83.49
62634;BME280;48704;50.534;6.442;2023-06-04T05:44:32;95891.41;;;11.65;81.16
62634;BME280;48704;50.534;6.442;2023-06-04T05:46:58;95901.19;;;11.46;83.25
62634;BME280;48704;50.534;6.442;2023-06-04T05:49:23;95903.59;;;11.53;83.89
62634;BME280;48704;50.534;6.442;2023-06-04T05:51:50;95906.03;;;11.60;82.94
62634;BME280;48704;50.534;6.442;2023-06-04T05:54:15;95916.19;;;11.72;82.40
62634;BME280;48704;50.534;6.442;2023-06-04T05:56:40;95913.81;;;11.80;82.03
62634;BME280;48704;50.534;6.442;2023-06-04T05:59:06;95925.59;;;11.98;80.05
62634;BME280;48704;50.534;6.442;2023-06-04T06:01:31;95926.38;;;11.99;79.44
62634;BME280;48704;50.534;6.442;2023-06-04T06:03:57;95927.53;;;12.07;79.17
62634;BME280;48704;50.534;6.442;2023-06-04T06:06:22;95928.31;;;12.08;79.07
62634;BME280;48704;50.534;6.442;2023-06-04T06:08:48;95929.75;;;12.03;79.23
62634;BME280;48704;50.534;6.442;2023-06-04T06:11:13;95922.34;;;12.15;78.63
62634;BME280;48704;50.534;6.442;2023-06-04T06:13:38;95924.47;;;12.20;78.18
62634;BME280;48704;50.534;6.442;2023-06-04T06:16:03;95927.28;;;12.20;77.23
62634;BME280;48704;50.534;6.442;2023-06-04T06:18:29;95931.78;;;12.32;76.85
62634;BME280;48704;50.534;6.442;2023-06-04T06:20:55;95924.38;;;12.44;75.23
62634;BME280;48704;50.534;6.442;2023-06-04T06:23:20;95927.56;;;12.51;74.84
62634;BME280;48704;50.534;6.442;2023-06-04T06:25:47;95932.28;;;12.60;74.87
62634;BME280;48704;50.534;6.442;2023-06-04T06:28:14;95931.53;;;12.59;74.01
62634;BME280;48704;50.534;6.442;2023-06-04T06:30:40;95929.97;;;12.58;72.61
62634;BME280;48704;50.534;6.442;2023-06-04T06:33:05;95925.03;;;12.83;70.65
62634;BME280;48704;50.534;6.442;2023-06-04T06:35:31;95931.38;;;12.83;72.07
62634;BME280;48704;50.534;6.442;2023-06-04T06:37:57;95926.28;;;13.31;70.34
62634;BME280;48704;50.534;6.442;2023-06-04T06:40:22;95930.19;;;13.19;70.61
62634;BME280;48704;50.534;6.442;2023-06-04T06:42:48;95929.56;;;13.30;72.63
62634;BME280;48704;50.534;6.442;2023-06-04T06:45:15;95938.59;;;13.39;69.61
62634;BME280;48704;50.534;6.442;2023-06-04T06:47:40;95922.94;;;13.48;69.33
62634;BME280;48704;50.534;6.442;2023-06-04T06:50:06;95928.47;;;13.62;69.50
62634;BME280;48704;50.534;6.442;2023-06-04T06:52:31;95933.97;;;13.77;67.96
62634;BME280;48704;50.534;6.442;2023-06-04T06:54:56;95937.97;;;13.91;67.33
62634;BME280;48704;50.534;6.442;2023-06-04T06:57:22;95936.28;;;13.79;67.92
62634;BME280;48704;50.534;6.442;2023-06-04T06:59:47;95940.03;;;13.70;69.02
62634;BME280;48704;50.534;6.442;2023-06-04T07:02:13;95940.25;;;13.66;68.30
62634;BME280;48704;50.534;6.442;2023-06-04T07:04:38;95947.50;;;13.79;67.21
62634;BME280;48704;50.534;6.442;2023-06-04T07:07:03;95944.22;;;13.80;66.14
62634;BME280;48704;50.534;6.442;2023-06-04T07:09:29;95949.13;;;13.85;64.81
62634;BME280;48704;50.534;6.442;2023-06-04T07:11:54;95947.22;;;13.97;64.45
62634;BME280;48704;50.534;6.442;2023-06-04T07:14:20;95953.97;;;13.64;65.24
62634;BME280;48704;50.534;6.442;2023-06-04T07:16:45;95946.25;;;14.26;63.26
62634;BME280;48704;50.534;6.442;2023-06-04T07:19:10;95950.97;;;14.14;62.63
62634;BME280;48704;50.534;6.442;2023-06-04T07:21:36;95953.91;;;14.46;62.28
62634;BME280;48704;50.534;6.442;2023-06-04T07:24:01;95954.66;;;14.46;62.65
62634;BME280;48704;50.534;6.442;2023-06-04T07:26:26;95953.53;;;14.64;61.64
62634;BME280;48704;50.534;6.442;2023-06-04T07:28:55;95955.69;;;14.75;63.15
62634;BME280;48704;50.534;6.442;2023-06-04T07:31:20;95964.19;;;14.86;60.87
62634;BME280;48704;50.534;6.442;2023-06-04T07:33:46;95953.50;;;14.90;62.09
62634;BME280;48704;50.534;6.442;2023-06-04T07:36:14;95951.66;;;14.81;58.35
62634;BME280;48704;50.534;6.442;2023-06-04T07:38:39;95957.44;;;15.03;58.77
62634;BME280;48704;50.534;6.442;2023-06-04T07:41:05;95952.97;;;15.17;58.69
62634;BME280;48704;50.534;6.442;2023-06-04T07:43:33;95963.28;;;15.37;58.09
62634;BME280;48704;50.534;6.442;2023-06-04T07:45:59;95958.44;;;15.37;59.94
62634;BME280;48704;50.534;6.442;2023-06-04T07:48:25;95948.75;;;15.38;59.45
62634;BME280;48704;50.534;6.442;2023-06-04T07:50:59;95957.78;;;15.54;58.69
62634;BME280;48704;50.534;6.442;2023-06-04T07:53:26;95954.34;;;15.76;57.99
62634;BME280;48704;50.534;6.442;2023-06-04T07:55:51;95956.00;;;15.51;56.08
62634;BME280;48704;50.534;6.442;2023-06-04T07:58:17;95956.41;;;15.75;55.10
62634;BME280;48704;50.534;6.442;2023-06-04T08:00:42;95960.53;;;15.85;55.68
62634;BME280;48704;50.534;6.442;2023-06-04T08:03:07;95955.97;;;15.93;55.34
62634;BME280;48704;50.534;6.442;2023-06-04T08:05:34;95945.47;;;15.88;55.70
62634;BME280;48704;50.534;6.442;2023-06-04T08:07:59;95958.78;;;15.93;54.42
62634;BME280;48704;50.534;6.442;2023-06-04T08:10:25;95959.59;;;16.11;53.71
62634;BME280;48704;50.534;6.442;2023-06-04T08:12:50;95958.38;;;16.23;52.61
62634;BME280;48704;50.534;6.442;2023-06-04T08:15:15;95955.09;;;16.30;51.39
62634;BME280;48704;50.534;6.442;2023-06-04T08:17:41;95961.47;;;16.25;51.74
62634;BME280;48704;50.534;6.442;2023-06-04T08:20:07;95958.91;;;16.38;51.65
62634;BME280;48704;50.534;6.442;2023-06-04T08:22:34;95954.81;;;16.39;50.69
62634;BME280;48704;50.534;6.442;2023-06-04T08:24:59;95963.81;;;16.49;49.37
62634;BME280;48704;50.534;6.442;2023-06-04T08:27:24;95968.44;;;16.57;51.04
62634;BME280;48704;50.534;6.442;2023-06-04T08:29:49;95971.00;;;16.61;50.40
62634;BME280;48704;50.534;6.442;2023-06-04T08:32:15;95966.44;;;16.75;52.04
62634;BME280;48704;50.534;6.442;2023-06-04T08:34:40;95966.69;;;16.77;51.96
62634;BME280;48704;50.534;6.442;2023-06-04T08:37:05;95967.75;;;16.96;50.00
62634;BME280;48704;50.534;6.442;2023-06-04T08:39:31;95966.69;;;16.77;49.49
62634;BME280;48704;50.534;6.442;2023-06-04T08:41:59;95962.59;;;16.78;48.51
62634;BME280;48704;50.534;6.442;2023-06-04T08:44:27;95970.53;;;16.85;47.83
62634;BME280;48704;50.534;6.442;2023-06-04T08:46:53;95969.75;;;16.79;49.60
62634;BME280;48704;50.534;6.442;2023-06-04T08:49:24;95964.66;;;16.94;49.03
62634;BME280;48704;50.534;6.442;2023-06-04T08:51:50;95976.44;;;17.09;47.62
62634;BME280;48704;50.534;6.442;2023-06-04T08:54:16;95971.84;;;16.95;48.25
62634;BME280;48704;50.534;6.442;2023-06-04T08:56:41;95971.06;;;17.22;48.54
62634;BME280;48704;50.534;6.442;2023-06-04T08:59:09;95976.91;;;17.58;49.06
62634;BME280;48704;50.534;6.442;2023-06-04T09:01:36;95973.06;;;17.61;48.86
62634;BME280;48704;50.534;6.442;2023-06-04T09:04:05;95974.34;;;17.60;48.04
62634;BME280;48704;50.534;6.442;2023-06-04T09:06:33;95979.47;;;17.78;46.13
62634;BME280;48704;50.534;6.442;2023-06-04T09:08:59;95982.22;;;17.84;47.37
62634;BME280;48704;50.534;6.442;2023-06-04T09:11:27;95977.41;;;17.62;45.52
62634;BME280;48704;50.534;6.442;2023-06-04T09:13:59;95975.81;;;17.94;46.51
62634;BME280;48704;50.534;6.442;2023-06-04T09:16:26;95980.38;;;18.09;46.00
62634;BME280;48704;50.534;6.442;2023-06-04T09:18:51;95981.94;;;17.98;46.62
62634;BME280;48704;50.534;6.442;2023-06-04T09:21:17;95984.00;;;17.92;48.62
62634;BME280;48704;50.534;6.442;2023-06-04T09:23:45;95981.38;;;18.17;47.87
62634;BME280;48704;50.534;6.442;2023-06-04T09:26:11;95981.25;;;18.39;46.20
62634;BME280;48704;50.534;6.442;2023-06-04T09:28:44;95985.59;;;18.46;46.67
62634;BME280;48704;50.534;6.442;2023-06-04T09:31:13;95991.50;;;18.42;45.07
62634;BME280;48704;50.534;6.442;2023-06-04T09:33:46;95987.03;;;18.58;46.01
62634;BME280;48704;50.534;6.442;2023-06-04T09:36:12;95989.25;;;18.82;45.93
62634;BME280;48704;50.534;6.442;2023-06-04T09:38:38;95979.41;;;18.94;45.27
62634;BME280;48704;50.534;6.442;2023-06-04T09:41:04;95982.00;;;18.92;45.26
62634;BME280;48704;50.534;6.442;2023-06-04T09:43:30;95988.78;;;18.78;44.29
62634;BME280;48704;50.534;6.442;2023-06-04T09:46:08;95978.34;;;18.97;44.40
62634;BME280;48704;50.534;6.442;2023-06-04T09:48:33;95983.38;;;19.15;44.91
62634;BME280;48704;50.534;6.442;2023-06-04T09:51:09;95982.56;;;18.85;43.32
62634;BME280;48704;50.534;6.442;2023-06-04T09:53:35;95984.09;;;18.86;46.14
62634;BME280;48704;50.534;6.442;2023-06-04T09:56:02;95988.81;;;19.37;44.34
62634;BME280;48704;50.534;6.442;2023-06-04T09:58:33;95980.72;;;19.58;44.20
62634;BME280;48704;50.534;6.442;2023-06-04T10:01:01;95985.91;;;19.49;43.63
62634;BME280;48704;50.534;6.442;2023-06-04T10:03:32;95979.72;;;19.50;45.62
62634;BME280;48704;50.534;6.442;2023-06-04T10:05:58;95978.53;;;19.40;41.52
62634;BME280;48704;50.534;6.442;2023-06-04T10:08:26;95985.78;;;19.65;41.82
62634;BME280;48704;50.534;6.442;2023-06-04T10:10:51;95983.44;;;20.13;42.12
62634;BME280;48704;50.534;6.442;2023-06-04T10:13:20;95980.72;;;20.26;41.63
62634;BME280;48704;50.534;6.442;2023-06-04T10:15:48;95981.97;;;20.06;41.34
62634;BME280;48704;50.534;6.442;2023-06-04T10:18:15;95986.38;;;20.26;40.95
62634;BME280;48704;50.534;6.442;2023-06-04T10:20:41;95982.66;;;20.36;42.42
62634;BME280;48704;50.534;6.442;2023-06-04T10:23:07;95984.06;;;20.67;41.25
62634;BME280;48704;50.534;6.442;2023-06-04T10:25:34;95983.19;;;21.10;41.53
62634;BME280;48704;50.534;6.442;2023-06-04T10:28:01;95977.69;;;20.99;38.42
62634;BME280;48704;50.534;6.442;2023-06-04T10:30:27;95981.69;;;20.90;37.79
62634;BME280;48704;50.534;6.442;2023-06-04T10:32:52;95976.56;;;21.40;36.83
62634;BME280;48704;50.534;6.442;2023-06-04T10:35:35;95978.63;;;21.20;38.00
62634;BME280;48704;50.534;6.442;2023-06-04T10:38:11;95979.78;;;21.30;39.24
62634;BME280;48704;50.534;6.442;2023-06-04T10:40:38;95980.09;;;21.72;37.55
62634;BME280;48704;50.534;6.442;2023-06-04T10:43:05;95981.66;;;21.99;37.79
62634;BME280;48704;50.534;6.442;2023-06-04T10:45:30;95981.13;;;22.14;36.84
62634;BME280;48704;50.534;6.442;2023-06-04T10:48:03;95985.38;;;22.34;38.54
62634;BME280;48704;50.534;6.442;2023-06-04T10:50:28;95993.81;;;22.26;38.63
62634;BME280;48704;50.534;6.442;2023-06-04T10:52:55;95981.38;;;22.90;35.62
62634;BME280;48704;50.534;6.442;2023-06-04T10:55:23;95986.59;;;22.99;35.67
62634;BME280;48704;50.534;6.442;2023-06-04T10:57:55;95978.97;;;22.67;36.20
62634;BME280;48704;50.534;6.442;2023-06-04T11:00:21;95985.97;;;22.80;34.83
62634;BME280;48704;50.534;6.442;2023-06-04T11:02:56;95978.69;;;23.47;33.85
62634;BME280;48704;50.534;6.442;2023-06-04T11:05:22;95983.25;;;23.63;34.50
62634;BME280;48704;50.534;6.442;2023-06-04T11:07:48;95972.69;;;23.71;33.39
62634;BME280;48704;50.534;6.442;2023-06-04T11:10:15;95975.19;;;23.54;34.18
62634;BME280;48704;50.534;6.442;2023-06-04T11:12:46;95971.19;;;23.98;32.32
62634;BME280;48704;50.534;6.442;2023-06-04T11:15:12;95970.56;;;23.92;31.70
62634;BME280;48704;50.534;6.442;2023-06-04T11:17:38;95970.06;;;24.30;31.03
62634;BME280;48704;50.534;6.442;2023-06-04T11:20:03;95968.94;;;24.33;31.77
62634;BME280;48704;50.534;6.442;2023-06-04T11:22:32;95981.88;;;24.34;31.41
62634;BME280;48704;50.534;6.442;2023-06-04T11:24:57;95972.28;;;24.24;31.92
62634;BME280;48704;50.534;6.442;2023-06-04T11:27:25;95972.41;;;24.11;31.77
62634;BME280;48704;50.534;6.442;2023-06-04T11:29:51;95972.38;;;23.82;31.41
62634;BME280;48704;50.534;6.442;2023-06-04T11:32:24;95971.41;;;24.73;32.12
62634;BME280;48704;50.534;6.442;2023-06-04T11:34:49;95962.78;;;24.50;32.76
62634;BME280;48704;50.534;6.442;2023-06-04T11:37:15;95974.94;;;24.22;32.36
62634;BME280;48704;50.534;6.442;2023-06-04T11:39:40;95976.63;;;24.53;31.69
62634;BME280;48704;50.534;6.442;2023-06-04T11:42:08;95978.06;;;23.82;31.34
62634;BME280;48704;50.534;6.442;2023-06-04T11:44:33;95973.13;;;24.32;30.06
62634;BME280;48704;50.534;6.442;2023-06-04T11:46:59;95976.25;;;24.49;29.90
62634;BME280;48704;50.534;6.442;2023-06-04T11:49:24;95971.28;;;24.42;30.76
62634;BME280;48704;50.534;6.442;2023-06-04T11:51:52;95967.03;;;24.28;31.04
62634;BME280;48704;50.534;6.442;2023-06-04T11:54:19;95962.94;;;24.44;31.63
62634;BME280;48704;50.534;6.442;2023-06-04T11:56:46;95971.44;;;24.88;30.56
62634;BME280;48704;50.534;6.442;2023-06-04T11:59:13;95972.53;;;25.13;29.59
62634;BME280;48704;50.534;6.442;2023-06-04T12:01:43;95969.75;;;25.67;29.30
62634;BME280;48704;50.534;6.442;2023-06-04T12:04:19;95970.50;;;25.52;29.55
62634;BME280;48704;50.534;6.442;2023-06-04T12:07:10;95966.31;;;25.83;28.36
62634;BME280;48704;50.534;6.442;2023-06-04T12:09:36;95964.88;;;24.49;27.67
62634;BME280;48704;50.534;6.442;2023-06-04T12:12:05;95959.84;;;25.90;27.87
62634;BME280;48704;50.534;6.442;2023-06-04T12:14:31;95960.03;;;25.92;29.89
62634;BME280;48704;50.534;6.442;2023-06-04T12:17:15;95959.81;;;26.21;28.00
62634;BME280;48704;50.534;6.442;2023-06-04T12:19:48;95957.91;;;26.31;27.96
62634;BME280;48704;50.534;6.442;2023-06-04T12:22:14;95963.09;;;26.73;27.19
62634;BME280;48704;50.534;6.442;2023-06-04T12:24:50;95963.03;;;26.25;26.74
62634;BME280;48704;50.534;6.442;2023-06-04T12:27:19;95959.81;;;26.21;27.95
62634;BME280;48704;50.534;6.442;2023-06-04T12:30:04;95954.25;;;26.86;26.56
62634;BME280;48704;50.534;6.442;2023-06-04T12:32:36;95953.72;;;26.17;27.25
62634;BME280;48704;50.534;6.442;2023-06-04T12:35:01;95959.09;;;25.82;27.12
62634;BME280;48704;50.534;6.442;2023-06-04T12:37:27;95954.09;;;25.14;27.97
62634;BME280;48704;50.534;6.442;2023-06-04T12:39:53;95962.84;;;25.39;28.23
62634;BME280;48704;50.534;6.442;2023-06-04T12:42:19;95955.44;;;25.21;27.64
62634;BME280;48704;50.534;6.442;2023-06-04T12:44:45;95960.56;;;26.21;27.19
62634;BME280;48704;50.534;6.442;2023-06-04T12:47:11;95955.22;;;26.25;26.76
62634;BME280;48704;50.534;6.442;2023-06-04T12:49:36;95955.81;;;25.32;27.53
62634;BME280;48704;50.534;6.442;2023-06-04T12:52:02;95952.56;;;26.20;27.67
62634;BME280;48704;50.534;6.442;2023-06-04T12:54:28;95962.38;;;26.64;27.36
62634;BME280;48704;50.534;6.442;2023-06-04T12:56:54;95965.41;;;26.67;26.85
62634;BME280;48704;50.534;6.442;2023-06-04T12:59:21;95958.59;;;26.47;27.35
62634;BME280;48704;50.534;6.442;2023-06-04T13:01:46;95963.56;;;26.46;27.32